createdAt,value
2023-04-02T00:00:19.541Z,7.20
2023-04-02T00:03:26.286Z,7.20
2023-04-02T00:06:45.147Z,7.20
2023-04-02T00:09:51.755Z,7.20
2023-04-02T00:13:08.358Z,7.20
2023-04-02T00:16:19.895Z,7.16
2023-04-02T00:19:32.965Z,7.20
2023-04-02T00:22:37.693Z,7.20
2023-04-02T00:25:46.284Z,7.20
2023-04-02T00:28:52.810Z,7.20
2023-04-02T00:32:01.954Z,7.18
2023-04-02T00:35:14.857Z,7.10
2023-04-02T00:38:26.122Z,7.10
2023-04-02T00:41:36.239Z,7.10
2023-04-02T00:44:45.303Z,7.10
2023-04-02T00:47:52.230Z,7.00
2023-04-02T00:51:01.392Z,7.00
2023-04-02T00:54:16.470Z,7.00
2023-04-02T00:57:26.554Z,7.00
2023-04-02T01:00:35.014Z,6.92
2023-04-02T01:03:41.427Z,6.90
2023-04-02T01:06:53.451Z,6.90
2023-04-02T01:10:17.054Z,6.90
2023-04-02T01:13:32.697Z,6.90
2023-04-02T01:16:50.613Z,6.88
2023-04-02T01:20:25.554Z,6.80
2023-04-02T01:23:37.078Z,6.80
2023-04-02T01:26:53.864Z,6.80
2023-04-02T01:30:02.039Z,6.80
2023-04-02T01:33:09.206Z,6.88
2023-04-02T01:36:26.561Z,6.90
2023-04-02T01:39:37.749Z,6.90
2023-04-02T01:42:53.384Z,6.90
2023-04-02T01:46:06.516Z,6.88
2023-04-02T01:49:20.270Z,6.80
2023-04-02T01:52:37.845Z,6.80
2023-04-02T01:55:47.268Z,6.70
2023-04-02T01:58:54.020Z,6.70
2023-04-02T02:02:05.323Z,6.68
2023-04-02T02:05:17.252Z,6.60
2023-04-02T02:08:48.560Z,6.60
2023-04-02T02:11:55.191Z,6.60
2023-04-02T02:15:01.757Z,6.60
2023-04-02T02:18:09.127Z,6.60
2023-04-02T02:21:29.700Z,6.68
2023-04-02T02:24:37.625Z,6.70
2023-04-02T02:27:54.066Z,6.70
2023-04-02T02:31:04.173Z,6.70
2023-04-02T02:34:19.387Z,6.80
2023-04-02T02:37:29.765Z,6.80
2023-04-02T02:40:42.134Z,6.80
2023-04-02T02:43:53.849Z,6.82
2023-04-02T02:47:04.376Z,6.90
2023-04-02T02:50:18.597Z,6.90
2023-04-02T02:53:26.675Z,6.90
2023-04-02T02:56:34.835Z,6.90
2023-04-02T02:59:43.726Z,6.90
2023-04-02T03:02:51.666Z,6.90
2023-04-02T03:06:03.145Z,6.92
2023-04-02T03:09:19.788Z,6.90
2023-04-02T03:12:41.725Z,6.92
2023-04-02T03:15:55.376Z,6.94
2023-04-02T03:19:07.629Z,6.92
2023-04-02T03:22:20.491Z,6.92
2023-04-02T03:25:38.903Z,6.98
2023-04-02T03:28:51.946Z,6.94
2023-04-02T03:32:01.846Z,6.98
2023-04-02T03:35:23.943Z,6.90
2023-04-02T03:38:33.262Z,6.90
2023-04-02T03:41:46.308Z,6.90
2023-04-02T03:44:58.616Z,6.90
2023-04-02T03:48:11.290Z,6.90
2023-04-02T03:51:23.915Z,6.82
2023-04-02T03:54:31.326Z,6.82
2023-04-02T03:57:44.076Z,6.90
2023-04-02T04:00:54.528Z,6.90
2023-04-02T04:04:08.806Z,6.90
2023-04-02T04:07:24.141Z,6.90
2023-04-02T04:10:31.978Z,6.80
2023-04-02T04:13:46.459Z,6.80
2023-04-02T04:16:56.522Z,6.80
2023-04-02T04:20:10.587Z,6.78
2023-04-02T04:23:30.717Z,6.72
2023-04-02T04:26:43.850Z,6.72
2023-04-02T04:29:57.210Z,6.76
2023-04-02T04:33:07.646Z,6.80
2023-04-02T04:36:29.054Z,6.80
2023-04-02T04:39:42.745Z,6.80
2023-04-02T04:42:53.397Z,6.80
2023-04-02T04:46:07.269Z,6.88
2023-04-02T04:49:19.687Z,6.90
2023-04-02T04:52:29.152Z,6.90
2023-04-02T04:55:39.901Z,6.90
2023-04-02T04:58:50.973Z,7.00
2023-04-02T05:02:04.367Z,7.00
2023-04-02T05:05:20.830Z,7.10
2023-04-02T05:08:32.170Z,7.20
2023-04-02T05:11:43.939Z,7.30
2023-04-02T05:14:56.460Z,7.46
2023-04-02T05:18:16.218Z,7.66
2023-04-02T05:21:27.214Z,7.88
2023-04-02T05:24:44.111Z,8.10
2023-04-02T05:27:54.694Z,8.20
2023-04-02T05:31:06.833Z,8.20
2023-04-02T05:34:15.015Z,8.20
2023-04-02T05:37:23.630Z,8.20
2023-04-02T05:40:36.199Z,8.20
2023-04-02T05:43:48.662Z,8.20
2023-04-02T05:46:59.477Z,8.30
2023-04-02T05:50:21.994Z,8.42
2023-04-02T05:53:30.425Z,8.60
2023-04-02T05:56:42.999Z,8.70
2023-04-02T05:59:54.725Z,8.70
2023-04-02T06:03:07.503Z,8.70
2023-04-02T06:06:20.409Z,8.80
2023-04-02T06:09:37.921Z,8.80
2023-04-02T06:12:49.154Z,8.80
2023-04-02T06:15:57.475Z,8.82
2023-04-02T06:19:06.435Z,8.90
2023-04-02T06:22:21.793Z,8.90
2023-04-02T06:25:32.134Z,8.90
2023-04-02T06:28:45.485Z,9.00
2023-04-02T06:32:01.853Z,9.04
2023-04-02T06:35:11.457Z,9.10
2023-04-02T06:38:26.838Z,9.20
2023-04-02T06:41:34.928Z,9.30
2023-04-02T06:44:42.342Z,9.30
2023-04-02T06:47:53.056Z,9.40
2023-04-02T06:51:04.085Z,9.48
2023-04-02T06:54:18.062Z,9.54
2023-04-02T06:57:25.056Z,9.70
2023-04-02T07:00:36.012Z,9.76
2023-04-02T07:03:43.384Z,9.80
2023-04-02T07:06:51.204Z,9.90
2023-04-02T07:09:58.654Z,10.00
2023-04-02T07:13:06.024Z,10.10
2023-04-02T07:16:26.093Z,10.10
2023-04-02T07:19:33.538Z,10.20
2023-04-02T07:22:40.036Z,10.26
2023-04-02T07:25:48.477Z,10.30
2023-04-02T07:28:55.559Z,10.40
2023-04-02T07:32:02.328Z,10.50
2023-04-02T07:35:10.556Z,10.50
2023-04-02T07:38:18.542Z,10.60
2023-04-02T07:41:25.305Z,10.60
2023-04-02T07:44:33.442Z,10.72
2023-04-02T07:47:39.924Z,10.82
2023-04-02T07:50:46.718Z,10.90
2023-04-02T07:53:57.229Z,11.00
2023-04-02T07:57:04.082Z,11.10
2023-04-02T08:00:13.774Z,11.20
2023-04-02T08:03:20.408Z,11.24
2023-04-02T08:06:27.958Z,11.30
2023-04-02T08:09:34.634Z,11.30
2023-04-02T08:12:41.289Z,11.30
2023-04-02T08:15:47.548Z,11.30
2023-04-02T08:18:54.022Z,11.36
2023-04-02T08:22:01.052Z,11.30
2023-04-02T08:25:08.163Z,11.30
2023-04-02T08:28:15.351Z,11.30
2023-04-02T08:31:27.695Z,11.30
2023-04-02T08:34:34.181Z,11.30
2023-04-02T08:37:46.371Z,11.30
2023-04-02T08:40:55.849Z,11.30
2023-04-02T08:44:32.241Z,11.30
2023-04-02T08:47:42.411Z,11.30
2023-04-02T08:50:55.812Z,11.30
2023-04-02T08:54:10.189Z,11.34
2023-04-02T08:57:28.293Z,11.34
2023-04-02T09:00:39.565Z,11.40
2023-04-02T09:03:49.747Z,11.40
2023-04-02T09:06:59.382Z,11.40
2023-04-02T09:10:06.400Z,11.40
2023-04-02T09:13:20.965Z,11.40
2023-04-02T09:16:42.461Z,11.50
2023-04-02T09:19:58.897Z,11.50
2023-04-02T09:23:06.928Z,11.52
2023-04-02T09:26:23.658Z,11.60
2023-04-02T09:29:42.941Z,11.60
2023-04-02T09:32:52.451Z,11.70
2023-04-02T09:36:02.915Z,11.80
2023-04-02T09:39:20.890Z,11.80
2023-04-02T09:42:36.823Z,11.90
2023-04-02T09:45:47.205Z,12.00
2023-04-02T09:48:58.585Z,12.02
2023-04-02T09:52:21.835Z,12.14
2023-04-02T09:55:31.452Z,12.20
2023-04-02T09:58:37.981Z,12.30
2023-04-02T10:01:46.164Z,12.40
2023-04-02T10:04:52.544Z,12.50
2023-04-02T10:08:11.090Z,12.60
2023-04-02T10:11:21.632Z,12.60
2023-04-02T10:14:33.032Z,12.66
2023-04-02T10:17:41.765Z,12.70
2023-04-02T10:20:53.839Z,12.70
2023-04-02T10:24:03.594Z,12.70
2023-04-02T10:27:25.928Z,12.80
2023-04-02T10:30:42.380Z,12.80
2023-04-02T10:33:52.344Z,12.90
2023-04-02T10:37:01.320Z,13.00
2023-04-02T10:40:16.036Z,13.10
2023-04-02T10:43:53.035Z,13.06
2023-04-02T10:47:10.831Z,13.06
2023-04-02T10:50:34.411Z,13.10
2023-04-02T10:53:47.257Z,13.20
2023-04-02T10:56:58.673Z,13.30
2023-04-02T11:00:17.674Z,13.34
2023-04-02T11:03:34.777Z,13.40
2023-04-02T11:06:48.934Z,13.50
2023-04-02T11:09:58.288Z,13.72
2023-04-02T11:13:10.981Z,13.80
2023-04-02T11:16:18.278Z,13.80
2023-04-02T11:19:28.503Z,13.80
2023-04-02T11:22:35.031Z,13.80
2023-04-02T11:25:41.699Z,13.90
2023-04-02T11:28:49.058Z,14.00
2023-04-02T11:32:17.146Z,14.32
2023-04-02T11:35:39.889Z,14.96
2023-04-02T11:38:57.542Z,15.60
2023-04-02T11:42:31.292Z,16.10
2023-04-02T11:45:58.767Z,16.50
2023-04-02T11:49:36.046Z,16.84
2023-04-02T11:52:54.401Z,16.90
2023-04-02T11:56:22.021Z,16.58
2023-04-02T11:59:34.358Z,16.20
2023-04-02T12:02:40.495Z,15.76
2023-04-02T12:05:59.199Z,15.40
2023-04-02T12:09:18.715Z,15.20
2023-04-02T12:12:33.700Z,15.40
2023-04-02T12:15:47.084Z,15.80
2023-04-02T12:18:56.012Z,15.80
2023-04-02T12:22:04.020Z,16.36
2023-04-02T12:25:29.756Z,16.80
2023-04-02T12:28:38.428Z,17.20
2023-04-02T12:31:49.243Z,17.10
2023-04-02T12:34:58.170Z,16.86
2023-04-02T12:38:04.909Z,16.50
2023-04-02T12:41:24.636Z,16.10
2023-04-02T12:44:33.024Z,15.80
2023-04-02T12:47:39.756Z,16.20
2023-04-02T12:50:46.333Z,16.70
2023-04-02T12:53:57.717Z,17.14
2023-04-02T12:57:39.113Z,17.28
2023-04-02T13:00:45.720Z,16.90
2023-04-02T13:04:06.583Z,17.10
2023-04-02T13:07:25.590Z,17.40
2023-04-02T13:10:35.646Z,16.96
2023-04-02T13:13:45.051Z,16.40
2023-04-02T13:16:52.959Z,15.80
2023-04-02T13:20:37.228Z,15.40
2023-04-02T13:23:44.604Z,15.54
2023-04-02T13:26:52.617Z,16.08
2023-04-02T13:30:08.644Z,16.40
2023-04-02T13:33:15.831Z,16.12
2023-04-02T13:36:22.358Z,16.10
2023-04-02T13:39:30.457Z,16.28
2023-04-02T13:42:37.514Z,16.72
2023-04-02T13:45:45.433Z,16.80
2023-04-02T13:48:52.533Z,17.00
2023-04-02T13:52:03.298Z,17.36
2023-04-02T13:55:11.314Z,17.50
2023-04-02T13:58:19.141Z,17.30
2023-04-02T14:01:27.487Z,16.88
2023-04-02T14:04:39.038Z,16.36
2023-04-02T14:07:58.749Z,15.90
2023-04-02T14:13:52.884Z,15.00
2023-04-02T14:17:26.328Z,14.80
2023-04-02T14:20:51.062Z,14.50
2023-04-02T14:27:47.655Z,14.40
2023-04-02T14:31:20.777Z,14.94
2023-04-02T14:34:41.947Z,15.24
2023-04-02T14:38:05.899Z,15.40
2023-04-02T14:41:24.861Z,15.70
2023-04-02T14:44:46.376Z,16.10
2023-04-02T14:48:01.393Z,16.40
2023-04-02T14:51:23.603Z,16.50
2023-04-02T14:54:50.497Z,16.30
2023-04-02T14:58:05.447Z,16.20
2023-04-02T15:01:20.519Z,15.92
2023-04-02T15:04:47.385Z,15.56
2023-04-02T15:08:04.651Z,15.20
2023-04-02T15:11:21.400Z,15.22
2023-04-02T15:14:46.356Z,15.50
2023-04-02T15:17:55.758Z,15.70
2023-04-02T15:21:23.080Z,15.90
2023-04-02T15:24:44.121Z,15.90
2023-04-02T15:28:17.008Z,15.80
2023-04-02T15:31:29.946Z,15.68
2023-04-02T15:34:58.221Z,15.50
2023-04-02T15:38:19.486Z,15.32
2023-04-02T15:41:33.687Z,15.20
2023-04-02T15:44:57.740Z,15.00
2023-04-02T15:48:52.479Z,14.78
2023-04-02T15:52:22.003Z,14.60
2023-04-02T15:55:40.426Z,14.40
2023-04-02T15:59:19.776Z,14.30
2023-04-02T16:03:03.243Z,14.10
2023-04-02T16:06:23.813Z,14.00
2023-04-02T16:09:44.200Z,13.70
2023-04-02T16:12:57.957Z,13.40
2023-04-02T16:16:12.644Z,13.30
2023-04-02T16:19:31.844Z,13.22
2023-04-02T16:22:57.223Z,13.12
2023-04-02T16:26:32.517Z,13.00
2023-04-02T16:29:59.994Z,12.80
2023-04-02T16:33:32.805Z,12.70
2023-04-02T16:36:54.064Z,12.58
2023-04-02T16:40:18.302Z,12.40
2023-04-02T16:43:36.116Z,12.20
2023-04-02T16:47:00.668Z,12.00
2023-04-02T16:50:22.911Z,11.76
2023-04-02T16:53:50.960Z,11.60
2023-04-02T16:57:26.685Z,11.34
2023-04-02T17:00:49.563Z,11.10
2023-04-02T17:04:20.012Z,10.96
2023-04-02T17:07:42.146Z,10.80
2023-04-02T17:11:02.742Z,10.60
2023-04-02T17:14:27.271Z,10.40
2023-04-02T17:17:37.500Z,10.30
2023-04-02T17:20:46.080Z,10.10
2023-04-02T17:24:03.966Z,9.98
2023-04-02T17:27:24.377Z,9.80
2023-04-02T17:30:42.603Z,9.70
2023-04-02T17:33:51.013Z,9.60
2023-04-02T17:37:16.859Z,9.40
2023-04-02T17:40:35.873Z,9.30
2023-04-02T17:43:54.380Z,9.20
2023-04-02T17:47:17.105Z,9.00
2023-04-02T17:50:48.406Z,8.90
2023-04-02T17:54:17.293Z,8.70
2023-04-02T17:57:44.026Z,8.60
2023-04-02T18:01:06.942Z,8.42
2023-04-02T18:04:33.237Z,8.30
2023-04-02T18:07:54.813Z,8.16
2023-04-02T18:11:15.463Z,8.00
2023-04-02T18:14:45.478Z,7.90
2023-04-02T18:17:54.886Z,7.80
2023-04-02T18:21:16.172Z,7.60
2023-04-02T18:25:00.717Z,7.50
2023-04-02T18:28:42.234Z,7.34
2023-04-02T18:32:03.563Z,7.22
2023-04-02T18:35:23.688Z,7.12
2023-04-02T18:38:45.832Z,7.00
2023-04-02T18:42:04.624Z,6.90
2023-04-02T18:45:23.768Z,6.80
2023-04-02T18:48:52.137Z,6.70
2023-04-02T18:52:05.855Z,6.60
2023-04-02T18:55:22.485Z,6.58
2023-04-02T18:58:40.430Z,6.50
2023-04-02T19:01:53.878Z,6.40
2023-04-02T19:05:07.818Z,6.30
2023-04-02T19:08:21.835Z,6.24
2023-04-02T19:11:31.701Z,6.20
2023-04-02T19:14:37.867Z,6.10
2023-04-02T19:17:49.507Z,6.00
2023-04-02T19:21:04.809Z,5.90
2023-04-02T19:24:35.163Z,5.86
2023-04-02T19:28:07.420Z,5.80
2023-04-02T19:31:32.929Z,5.70
2023-04-02T19:34:49.833Z,5.60
2023-04-02T19:38:10.879Z,5.50
2023-04-02T19:41:31.315Z,5.40
2023-04-02T19:44:43.074Z,5.36
2023-04-02T19:47:51.454Z,5.30
2023-04-02T19:51:00.555Z,5.20
2023-04-02T19:54:08.774Z,5.20
2023-04-02T19:57:19.658Z,5.18
2023-04-02T20:00:27.697Z,5.20
2023-04-02T20:03:36.118Z,5.20
2023-04-02T20:06:44.725Z,5.20
2023-04-02T20:09:52.835Z,5.20
2023-04-02T20:13:00.870Z,5.20
2023-04-02T20:16:10.573Z,5.20
2023-04-02T20:19:18.798Z,5.20
2023-04-02T20:22:27.182Z,5.20
2023-04-02T20:25:35.231Z,5.24
2023-04-02T20:28:43.816Z,5.30
2023-04-02T20:31:51.928Z,5.30
2023-04-02T20:35:00.656Z,5.30
2023-04-02T20:38:09.142Z,5.30
2023-04-02T20:41:17.369Z,5.30
2023-04-02T20:44:28.865Z,5.30
2023-04-02T20:47:37.096Z,5.30
2023-04-02T20:50:46.429Z,5.30
2023-04-02T20:53:55.437Z,5.30
2023-04-02T20:57:03.871Z,5.30
2023-04-02T21:00:15.040Z,5.30
2023-04-02T21:03:23.252Z,5.28
2023-04-02T21:06:33.981Z,5.24
2023-04-02T21:09:42.410Z,5.20
2023-04-02T21:12:50.661Z,5.20
2023-04-02T21:15:59.039Z,5.20
2023-04-02T21:19:09.670Z,5.18
2023-04-02T21:22:17.741Z,5.10
2023-04-02T21:25:26.693Z,5.10
2023-04-02T21:28:36.447Z,5.00
2023-04-02T21:31:46.032Z,5.00
2023-04-02T21:34:55.113Z,4.90
2023-04-02T21:38:04.106Z,4.88
2023-04-02T21:41:24.535Z,4.80
2023-04-02T21:44:34.326Z,4.80
2023-04-02T21:47:42.476Z,4.80
2023-04-02T21:50:50.909Z,4.80
2023-04-02T21:54:00.162Z,4.80
2023-04-02T21:57:08.607Z,4.80
2023-04-02T22:00:19.744Z,4.84
2023-04-02T22:03:31.661Z,4.84
2023-04-02T22:06:44.486Z,4.80
2023-04-02T22:09:53.269Z,4.80
2023-04-02T22:13:02.632Z,4.72
2023-04-02T22:16:15.186Z,4.70
2023-04-02T22:19:24.040Z,4.70
2023-04-02T22:22:32.492Z,4.64
2023-04-02T22:25:40.702Z,4.60
2023-04-02T22:28:52.949Z,4.60
2023-04-02T22:32:01.760Z,4.54
2023-04-02T22:35:11.589Z,4.50
2023-04-02T22:38:18.406Z,4.50
2023-04-02T22:41:29.797Z,4.40
2023-04-02T22:44:38.014Z,4.40
2023-04-02T22:47:46.790Z,4.30
2023-04-02T22:50:56.006Z,4.30
2023-04-02T22:54:04.791Z,4.20
2023-04-02T22:57:13.175Z,4.20
2023-04-02T23:00:23.196Z,4.20
2023-04-02T23:03:29.681Z,4.14
2023-04-02T23:06:38.144Z,4.14
2023-04-02T23:09:46.505Z,4.10
2023-04-02T23:12:54.646Z,4.20
2023-04-02T23:16:03.558Z,4.20
2023-04-02T23:19:12.073Z,4.20
2023-04-02T23:22:20.193Z,4.20
2023-04-02T23:25:28.732Z,4.20
2023-04-02T23:28:38.670Z,4.20
2023-04-02T23:31:47.568Z,4.30
2023-04-02T23:34:55.833Z,4.30
2023-04-02T23:38:04.458Z,4.30
2023-04-02T23:41:16.141Z,4.30
2023-04-02T23:44:24.536Z,4.30
2023-04-02T23:47:32.877Z,4.34
2023-04-02T23:50:41.771Z,4.40
2023-04-02T23:53:50.704Z,4.40
2023-04-02T23:56:59.203Z,4.40
